Ragersville, Ohio
Current Conditions -  °F | °C
As of 11:53 AM on Thursday 27 Nov 2014 (Local Time) from KPHD Reporting Station
Light Snow Light Snow  
Wind Chill: -4°   Ceiling: 1700
Heat Index:   Visibility: 5mi
Dew Point: -3°   Wind: 12mph
Humidity: 78%   Direction: 320°NW
Pressure: 30.14"   Gusts: NA
Location:  40.5178°N, 81.673°W
Report Text: KPHD 271653Z AUTO 32010KT 5SM -SN OVC017 01/M03 A3014 RMK AO2 SLP216 P0000 T00061028
Loading
Personal Weather Stations






























Interactive Weather Map New forecast layout! Learn more

10-Day Weather Forecast

Advertisements
Track Severe Weather on mobile